createdAt,value
2018-05-08T00:00:07.688Z,66.20
2018-05-08T00:02:36.557Z,66.60
2018-05-08T00:05:05.396Z,67.00
2018-05-08T00:07:34.989Z,66.80
2018-05-08T00:10:04.625Z,67.00
2018-05-08T00:12:33.489Z,67.00
2018-05-08T00:15:03.098Z,67.00
2018-05-08T00:17:32.702Z,67.00
2018-05-08T00:20:02.292Z,67.40
2018-05-08T00:22:31.926Z,67.50
2018-05-08T00:25:00.777Z,67.50
2018-05-08T00:27:29.606Z,67.40
2018-05-08T00:29:58.439Z,67.70
2018-05-08T00:32:27.281Z,68.00
2018-05-08T00:34:56.104Z,68.10
2018-05-08T00:37:25.778Z,68.20
2018-05-08T00:39:54.597Z,68.00
2018-05-08T00:42:23.432Z,67.90
2018-05-08T00:44:53.041Z,68.20
2018-05-08T00:47:22.658Z,68.20
2018-05-08T00:49:51.484Z,68.30
2018-05-08T00:52:20.336Z,68.20
2018-05-08T00:55:01.486Z,68.10
2018-05-08T00:57:30.339Z,68.20
2018-05-08T00:59:59.502Z,68.20
2018-05-08T01:02:28.332Z,68.30
2018-05-08T01:04:57.431Z,68.90
2018-05-08T01:07:26.214Z,69.60
2018-05-08T01:09:55.390Z,68.50
2018-05-08T01:12:24.213Z,68.50
2018-05-08T01:14:53.068Z,68.80
2018-05-08T01:17:21.929Z,68.70
2018-05-08T01:19:51.539Z,69.40
2018-05-08T01:22:21.132Z,69.20
2018-05-08T01:24:50.092Z,69.00
2018-05-08T01:27:18.931Z,69.90
2018-05-08T01:29:47.769Z,69.10
2018-05-08T01:32:16.613Z,69.00
2018-05-08T01:34:45.554Z,69.20
2018-05-08T01:37:14.461Z,69.40
2018-05-08T01:39:43.305Z,69.40
2018-05-08T01:42:12.933Z,70.00
2018-05-08T01:44:41.773Z,69.80
2018-05-08T01:47:10.616Z,70.20
2018-05-08T01:49:39.460Z,70.70
2018-05-08T01:52:08.295Z,71.70
2018-05-08T01:54:37.148Z,71.00
2018-05-08T01:57:05.972Z,71.10
2018-05-08T01:59:34.826Z,71.40
2018-05-08T02:02:03.659Z,72.00
2018-05-08T02:04:32.495Z,72.80
2018-05-08T02:07:02.117Z,72.00
2018-05-08T02:09:31.729Z,72.40
2018-05-08T02:12:01.321Z,72.30
2018-05-08T02:14:30.148Z,72.20
2018-05-08T02:16:59.757Z,72.30
2018-05-08T02:19:28.600Z,72.20
2018-05-08T02:21:57.447Z,72.10
2018-05-08T02:24:26.286Z,71.80
2018-05-08T02:26:55.130Z,71.70
2018-05-08T02:29:23.959Z,72.20
2018-05-08T02:31:53.609Z,72.40
2018-05-08T02:34:23.201Z,72.40
2018-05-08T02:36:52.842Z,72.60
2018-05-08T02:39:21.658Z,72.40
2018-05-08T02:41:50.501Z,72.70
2018-05-08T02:44:20.095Z,73.00
2018-05-08T02:46:49.369Z,73.00
2018-05-08T02:49:18.209Z,73.40
2018-05-08T02:51:48.628Z,73.90
2018-05-08T02:54:17.457Z,73.90
2018-05-08T02:56:46.301Z,73.80
2018-05-08T02:59:15.166Z,73.90
2018-05-08T03:01:44.001Z,74.00
2018-05-08T03:04:12.844Z,74.10
2018-05-08T03:06:42.457Z,74.60
2018-05-08T03:09:12.075Z,74.40
2018-05-08T03:11:41.666Z,74.60
2018-05-08T03:14:12.199Z,74.60
2018-05-08T03:16:41.009Z,74.50
2018-05-08T03:19:09.860Z,74.80
2018-05-08T03:21:38.693Z,74.70
2018-05-08T03:24:07.549Z,74.80
2018-05-08T03:26:36.373Z,75.90
2018-05-08T03:29:05.204Z,74.80
2018-05-08T03:31:34.041Z,75.00
2018-05-08T03:34:03.650Z,76.50
2018-05-08T03:36:33.258Z,75.50
2018-05-08T03:39:02.868Z,75.70
2018-05-08T03:41:33.065Z,75.90
2018-05-08T03:44:01.905Z,75.90
2018-05-08T03:46:30.750Z,75.90
2018-05-08T03:48:59.581Z,76.20
2018-05-08T03:51:28.433Z,76.00
2018-05-08T03:53:58.032Z,76.20
2018-05-08T03:56:27.643Z,77.20
2018-05-08T03:58:57.229Z,77.40
2018-05-08T04:01:37.860Z,77.10
2018-05-08T04:04:18.562Z,77.10
2018-05-08T04:07:00.459Z,77.10
2018-05-08T04:09:29.273Z,77.40
2018-05-08T04:11:58.880Z,78.30
2018-05-08T04:14:28.462Z,78.60
2018-05-08T04:16:57.511Z,78.40
2018-05-08T04:19:26.474Z,78.80
2018-05-08T04:21:56.077Z,79.40
2018-05-08T04:24:25.250Z,79.30
2018-05-08T04:26:54.113Z,80.80
2018-05-08T04:29:22.945Z,80.50
2018-05-08T04:31:51.812Z,80.80
2018-05-08T04:34:20.639Z,80.50
2018-05-08T04:36:50.417Z,81.50
2018-05-08T04:39:19.254Z,82.30
2018-05-08T04:41:48.083Z,82.60
2018-05-08T04:44:17.225Z,82.50
2018-05-08T04:46:46.079Z,82.40
2018-05-08T04:49:14.905Z,82.40
2018-05-08T04:51:43.745Z,82.80
2018-05-08T04:54:12.578Z,83.00
2018-05-08T04:56:41.424Z,82.50
2018-05-08T04:59:10.233Z,83.00
2018-05-08T05:01:39.098Z,83.40
2018-05-08T05:04:07.929Z,83.30
2018-05-08T05:06:36.763Z,83.30
2018-05-08T05:09:06.420Z,84.50
2018-05-08T05:11:35.249Z,84.30
2018-05-08T05:14:04.856Z,85.50
2018-05-08T05:16:34.455Z,85.70
2018-05-08T05:19:03.305Z,85.70
2018-05-08T05:21:32.153Z,85.00
2018-05-08T05:24:01.750Z,85.80
2018-05-08T05:26:30.572Z,85.80
2018-05-08T05:28:59.414Z,86.20
2018-05-08T05:31:29.025Z,86.00
2018-05-08T05:33:58.623Z,86.20
2018-05-08T05:36:28.224Z,87.50
2018-05-08T05:38:57.840Z,87.50
2018-05-08T05:41:27.420Z,87.90
2018-05-08T05:43:56.269Z,88.60
2018-05-08T05:46:25.105Z,87.90
2018-05-08T05:48:53.965Z,87.80
2018-05-08T05:51:22.809Z,87.50
2018-05-08T05:53:52.440Z,89.20
2018-05-08T05:56:21.293Z,89.20
2018-05-08T05:58:50.924Z,88.80
2018-05-08T06:01:20.545Z,89.20
2018-05-08T06:03:49.370Z,89.10
2018-05-08T06:06:18.340Z,88.40
2018-05-08T06:08:47.161Z,89.60
2018-05-08T06:11:16.000Z,89.10
2018-05-08T06:13:45.717Z,89.70
2018-05-08T06:16:14.557Z,89.50
2018-05-08T06:18:43.386Z,89.70
2018-05-08T06:21:12.232Z,90.30
2018-05-08T06:23:41.846Z,90.30
2018-05-08T06:26:10.722Z,90.00
2018-05-08T06:28:39.561Z,90.10
2018-05-08T06:31:09.157Z,90.20
2018-05-08T06:33:38.769Z,90.10
2018-05-08T06:36:08.373Z,90.80
2018-05-08T06:38:37.974Z,90.90
2018-05-08T06:41:06.812Z,90.90
2018-05-08T06:43:35.656Z,91.30
2018-05-08T06:46:05.252Z,91.30
2018-05-08T06:48:34.854Z,91.50
2018-05-08T06:51:03.680Z,91.50
2018-05-08T06:53:32.520Z,91.50
2018-05-08T06:56:01.360Z,91.40
2018-05-08T06:58:30.221Z,90.40
2018-05-08T07:00:59.807Z,91.10
2018-05-08T07:03:28.661Z,91.10
2018-05-08T07:05:57.481Z,90.70
2018-05-08T07:08:26.323Z,90.50
2018-05-08T07:10:55.142Z,90.80
2018-05-08T07:13:23.982Z,90.80
2018-05-08T07:15:53.653Z,91.30
2018-05-08T07:18:23.224Z,90.70
2018-05-08T07:20:52.041Z,90.70
2018-05-08T07:23:20.883Z,91.10
2018-05-08T07:25:49.769Z,91.10
2018-05-08T07:28:18.618Z,91.40
2018-05-08T07:30:48.210Z,91.20
2018-05-08T07:33:17.836Z,91.10
2018-05-08T07:35:46.676Z,91.00
2018-05-08T07:38:15.557Z,90.60
2018-05-08T07:40:45.129Z,90.70
2018-05-08T07:43:13.953Z,90.70
2018-05-08T07:45:42.784Z,90.00
2018-05-08T07:48:12.398Z,90.50
2018-05-08T07:50:42.081Z,91.00
2018-05-08T07:53:11.682Z,90.90
2018-05-08T07:55:40.495Z,90.90
2018-05-08T07:58:10.117Z,90.90
2018-05-08T08:00:39.704Z,91.10
2018-05-08T08:03:09.308Z,92.20
2018-05-08T08:05:38.484Z,92.10
2018-05-08T08:08:07.325Z,91.50
2018-05-08T08:10:36.173Z,90.90
2018-05-08T08:13:05.017Z,91.00
2018-05-08T08:15:33.848Z,91.00
2018-05-08T08:18:02.694Z,91.60
2018-05-08T08:20:31.986Z,91.50
2018-05-08T08:23:00.948Z,91.70
2018-05-08T08:25:30.556Z,90.40
2018-05-08T08:27:59.399Z,90.40
2018-05-08T08:30:28.232Z,90.50
2018-05-08T08:32:57.090Z,89.10
2018-05-08T08:35:25.926Z,88.10
2018-05-08T08:37:55.557Z,89.00
2018-05-08T08:40:25.163Z,87.00
2018-05-08T08:42:54.344Z,87.00
2018-05-08T08:45:23.394Z,87.70
2018-05-08T08:47:52.315Z,87.20
2018-05-08T08:50:21.833Z,85.00
2018-05-08T08:52:51.441Z,84.80
2018-05-08T08:55:21.044Z,82.00
2018-05-08T08:57:50.688Z,80.50
2018-05-08T09:00:19.529Z,80.30
2018-05-08T09:02:48.361Z,78.90
2018-05-08T09:05:17.198Z,78.50
2018-05-08T09:07:46.240Z,77.20
2018-05-08T09:10:15.098Z,72.90
2018-05-08T09:12:44.697Z,71.20
2018-05-08T09:15:14.329Z,71.00
2018-05-08T09:17:43.929Z,69.60
2018-05-08T09:20:13.537Z,65.50
2018-05-08T09:22:43.132Z,59.70
2018-05-08T09:25:12.781Z,58.00
2018-05-08T09:27:41.953Z,57.30
2018-05-08T09:30:10.836Z,54.40
2018-05-08T09:32:39.650Z,53.20
2018-05-08T09:35:08.488Z,52.80
2018-05-08T09:37:37.337Z,51.80
2018-05-08T09:40:07.271Z,48.80
2018-05-08T09:42:36.134Z,48.80
2018-05-08T09:45:05.733Z,47.00
2018-05-08T09:47:34.565Z,46.90
2018-05-08T09:50:03.394Z,45.90
2018-05-08T09:52:32.236Z,45.20
2018-05-08T09:55:01.054Z,44.30
2018-05-08T09:57:29.909Z,44.90
2018-05-08T09:59:58.752Z,44.70
2018-05-08T10:02:27.588Z,45.20
2018-05-08T10:04:56.432Z,43.60
2018-05-08T10:07:25.255Z,44.00
2018-05-08T10:09:54.115Z,43.70
2018-05-08T10:12:23.360Z,43.50
2018-05-08T10:14:52.191Z,43.80
2018-05-08T10:17:21.022Z,43.40
2018-05-08T10:19:50.651Z,43.60
2018-05-08T10:22:19.501Z,42.90
2018-05-08T10:24:49.110Z,41.50
2018-05-08T10:27:18.710Z,41.50
2018-05-08T10:29:48.372Z,41.50
2018-05-08T10:32:17.212Z,40.90
2018-05-08T10:34:46.055Z,39.80
2018-05-08T10:37:14.888Z,39.00
2018-05-08T10:39:43.760Z,38.10
2018-05-08T10:42:12.616Z,38.70
2018-05-08T10:44:41.508Z,38.30
2018-05-08T10:47:10.364Z,38.00
2018-05-08T10:49:39.192Z,37.50
2018-05-08T10:52:08.045Z,38.00
2018-05-08T10:54:36.864Z,36.70
2018-05-08T10:57:05.721Z,36.40
2018-05-08T10:59:34.569Z,35.90
2018-05-08T11:02:03.414Z,35.70
2018-05-08T11:04:33.017Z,35.30
2018-05-08T11:07:02.624Z,34.90
2018-05-08T11:09:32.232Z,33.00
2018-05-08T11:12:01.415Z,32.90
2018-05-08T11:14:30.243Z,33.30
2018-05-08T11:16:59.106Z,33.00
2018-05-08T11:19:28.694Z,33.60
2018-05-08T11:21:57.524Z,33.60
2018-05-08T11:24:26.346Z,34.10
2018-05-08T11:26:55.193Z,33.30
2018-05-08T11:29:24.051Z,33.00
2018-05-08T11:31:53.680Z,31.70
2018-05-08T11:34:22.506Z,31.60
2018-05-08T11:36:51.357Z,31.00
2018-05-08T11:39:20.310Z,30.50
2018-05-08T11:41:49.857Z,30.20
2018-05-08T11:44:19.005Z,30.20
2018-05-08T11:46:48.824Z,29.40
2018-05-08T11:49:17.672Z,29.30
2018-05-08T11:51:46.523Z,29.40
2018-05-08T11:54:16.154Z,29.40
2018-05-08T11:56:45.017Z,28.80
2018-05-08T11:59:14.656Z,29.00
2018-05-08T12:01:43.605Z,28.90
2018-05-08T12:04:12.450Z,29.70
2018-05-08T12:06:41.285Z,30.80
2018-05-08T12:09:10.210Z,29.60
2018-05-08T12:11:38.960Z,29.60
2018-05-08T12:14:07.820Z,30.80
2018-05-08T12:16:36.657Z,32.30
2018-05-08T12:19:06.263Z,35.20
2018-05-08T12:21:35.893Z,37.30
2018-05-08T12:24:04.731Z,37.20
2018-05-08T12:26:33.562Z,37.40
2018-05-08T12:29:02.459Z,38.40
2018-05-08T12:31:32.076Z,39.50
2018-05-08T12:34:00.909Z,40.20
2018-05-08T12:36:29.782Z,40.40
2018-05-08T12:38:59.390Z,40.60
2018-05-08T12:41:28.461Z,40.60
2018-05-08T12:43:57.286Z,41.30
2018-05-08T12:46:26.146Z,41.00
2018-05-08T12:48:54.972Z,41.00
2018-05-08T12:51:23.838Z,41.50
2018-05-08T12:53:53.421Z,40.90
2018-05-08T12:56:22.323Z,40.80
2018-05-08T12:58:51.947Z,42.00
2018-05-08T13:01:21.549Z,42.30
2018-05-08T13:03:51.181Z,41.50
2018-05-08T13:06:20.086Z,41.40
2018-05-08T13:08:48.889Z,42.30
2018-05-08T13:11:17.729Z,41.00
2018-05-08T13:13:47.352Z,41.50
2018-05-08T13:16:16.198Z,41.40
2018-05-08T13:18:45.057Z,41.10
2018-05-08T13:21:13.898Z,41.60
2018-05-08T13:23:43.533Z,41.60
2018-05-08T13:26:13.112Z,41.80
2018-05-08T13:28:42.725Z,42.00
2018-05-08T13:31:12.397Z,42.50
2018-05-08T13:33:41.184Z,42.40
2018-05-08T13:36:09.996Z,41.80
2018-05-08T13:38:38.855Z,42.30
2018-05-08T13:41:07.689Z,41.50
2018-05-08T13:43:36.550Z,40.70
2018-05-08T13:46:05.387Z,40.80
2018-05-08T13:48:35.029Z,40.40
2018-05-08T13:51:03.840Z,40.40
2018-05-08T13:53:32.673Z,41.20
2018-05-08T13:56:01.518Z,41.60
2018-05-08T13:58:30.352Z,41.30
2018-05-08T14:00:59.300Z,41.20
2018-05-08T14:03:28.844Z,41.20
2018-05-08T14:05:58.482Z,41.60
2018-05-08T14:08:27.307Z,41.60
2018-05-08T14:10:56.511Z,41.70
2018-05-08T14:13:25.320Z,41.70
2018-05-08T14:15:54.995Z,41.90
2018-05-08T14:18:23.800Z,41.80
2018-05-08T14:20:52.677Z,42.30
2018-05-08T14:23:21.532Z,42.10
2018-05-08T14:25:50.376Z,41.80
2018-05-08T14:28:19.980Z,42.20
2018-05-08T14:30:49.603Z,42.80
2018-05-08T14:33:18.464Z,42.20
2018-05-08T14:35:48.078Z,42.20
2018-05-08T14:38:16.901Z,42.10
2018-05-08T14:40:45.761Z,42.60
2018-05-08T14:43:15.348Z,43.10
2018-05-08T14:45:44.951Z,43.20
2018-05-08T14:48:13.793Z,43.10
2018-05-08T14:50:42.620Z,43.70
2018-05-08T14:53:11.469Z,43.60
2018-05-08T14:55:40.324Z,42.90
2018-05-08T14:58:09.185Z,42.90
2018-05-08T15:00:37.987Z,43.00
2018-05-08T15:03:06.845Z,42.90
2018-05-08T15:05:35.677Z,43.90
2018-05-08T15:08:04.559Z,43.50
2018-05-08T15:10:33.387Z,43.30
2018-05-08T15:13:02.242Z,42.70
2018-05-08T15:15:31.841Z,41.80
2018-05-08T15:18:00.694Z,41.80
2018-05-08T15:20:29.528Z,42.30
2018-05-08T15:22:59.134Z,43.10
2018-05-08T15:25:28.752Z,43.10
2018-05-08T15:27:58.361Z,42.90
2018-05-08T15:30:27.220Z,42.80
2018-05-08T15:32:56.070Z,43.90
2018-05-08T15:35:25.690Z,42.10
2018-05-08T15:37:55.299Z,44.40
2018-05-08T15:40:25.311Z,44.90
2018-05-08T15:42:54.576Z,44.90
2018-05-08T15:45:23.423Z,46.10
2018-05-08T15:47:52.276Z,44.20
2018-05-08T15:50:22.213Z,44.60
2018-05-08T15:52:51.849Z,45.20
2018-05-08T15:55:20.895Z,45.20
2018-05-08T15:57:49.553Z,45.50
2018-05-08T16:00:18.420Z,45.30
2018-05-08T16:02:47.262Z,45.60
2018-05-08T16:05:17.194Z,46.20
2018-05-08T16:07:46.794Z,46.90
2018-05-08T16:10:16.425Z,46.30
2018-05-08T16:12:45.264Z,46.20
2018-05-08T16:15:14.093Z,46.50
2018-05-08T16:17:43.704Z,47.20
2018-05-08T16:20:12.576Z,47.10
2018-05-08T16:22:41.434Z,47.30
2018-05-08T16:25:10.314Z,48.40
2018-05-08T16:27:39.296Z,47.00
2018-05-08T16:30:08.191Z,47.00
2018-05-08T16:32:36.988Z,47.00
2018-05-08T16:35:05.828Z,47.40
2018-05-08T16:37:34.666Z,48.10
2018-05-08T16:40:03.496Z,47.70
2018-05-08T16:42:32.337Z,48.00
2018-05-08T16:45:01.178Z,48.20
2018-05-08T16:47:30.025Z,48.60
2018-05-08T16:49:59.633Z,48.40
2018-05-08T16:52:29.305Z,48.30
2018-05-08T16:54:58.133Z,48.00
2018-05-08T16:57:26.974Z,48.60
2018-05-08T16:59:55.844Z,48.80
2018-05-08T17:02:25.449Z,48.90
2018-05-08T17:04:55.161Z,49.00
2018-05-08T17:07:23.943Z,49.00
2018-05-08T17:09:53.579Z,49.50
2018-05-08T17:12:22.425Z,49.50
2018-05-08T17:14:52.040Z,49.80
2018-05-08T17:17:21.637Z,49.40
2018-05-08T17:19:51.242Z,50.00
2018-05-08T17:22:20.834Z,49.80
2018-05-08T17:24:49.684Z,49.70
2018-05-08T17:27:20.297Z,50.70
2018-05-08T17:29:50.173Z,50.40
2018-05-08T17:32:19.000Z,50.40
2018-05-08T17:34:48.750Z,50.70
2018-05-08T17:37:17.587Z,50.60
2018-05-08T17:39:46.457Z,50.70
2018-05-08T17:42:15.368Z,51.00
2018-05-08T17:44:44.218Z,51.30
2018-05-08T17:47:13.898Z,51.50
2018-05-08T17:49:42.837Z,51.20
2018-05-08T17:52:12.022Z,51.80
2018-05-08T17:54:40.781Z,51.80
2018-05-08T17:57:10.366Z,52.40
2018-05-08T17:59:39.965Z,52.30
2018-05-08T18:02:09.610Z,52.50
2018-05-08T18:04:38.410Z,52.40
2018-05-08T18:07:07.301Z,52.50
2018-05-08T18:09:36.140Z,52.90
2018-05-08T18:12:05.015Z,53.00
2018-05-08T18:14:33.829Z,53.50
2018-05-08T18:17:03.437Z,53.50
2018-05-08T18:19:33.058Z,53.70
2018-05-08T18:22:01.932Z,53.60
2018-05-08T18:24:30.765Z,54.10
2018-05-08T18:26:59.693Z,53.90
2018-05-08T18:29:28.864Z,54.20
2018-05-08T18:31:57.718Z,54.50
2018-05-08T18:34:26.668Z,54.60
2018-05-08T18:36:55.406Z,54.90
2018-05-08T18:39:25.049Z,55.40
2018-05-08T18:41:53.947Z,55.40
2018-05-08T18:44:22.788Z,55.70
2018-05-08T18:46:52.390Z,55.90
2018-05-08T18:49:22.117Z,55.90
2018-05-08T18:51:50.885Z,55.80
2018-05-08T18:54:19.718Z,55.90
2018-05-08T18:56:48.576Z,56.60
2018-05-08T18:59:17.590Z,56.20
2018-05-08T19:01:46.438Z,56.50
2018-05-08T19:04:15.290Z,56.60
2018-05-08T19:06:44.184Z,57.40
2018-05-08T19:09:13.793Z,57.00
2018-05-08T19:11:42.665Z,56.90
2018-05-08T19:14:11.541Z,57.00
2018-05-08T19:16:41.145Z,57.50
2018-05-08T19:19:16.496Z,57.40
2018-05-08T19:21:46.102Z,57.60
2018-05-08T19:24:20.821Z,57.50
2018-05-08T19:26:50.485Z,57.70
2018-05-08T19:29:25.158Z,57.70
2018-05-08T19:31:54.772Z,58.20
2018-05-08T19:34:23.904Z,58.10
2018-05-08T19:36:58.528Z,58.30
2018-05-08T19:39:28.140Z,58.60
2018-05-08T19:41:57.787Z,59.20
2018-05-08T19:44:26.622Z,58.50
2018-05-08T19:46:55.559Z,58.60
2018-05-08T19:49:24.303Z,58.70
2018-05-08T19:51:53.357Z,58.90
2018-05-08T19:54:22.214Z,58.90
2018-05-08T19:56:51.857Z,59.30
2018-05-08T19:59:20.714Z,59.30
2018-05-08T20:01:49.569Z,59.50
2018-05-08T20:04:18.408Z,59.60
2018-05-08T20:06:47.245Z,59.80
2018-05-08T20:09:16.105Z,59.90
2018-05-08T20:11:45.813Z,60.00
2018-05-08T20:14:14.709Z,60.80
2018-05-08T20:16:43.589Z,59.90
2018-05-08T20:19:12.481Z,60.00
2018-05-08T20:21:41.319Z,60.20
2018-05-08T20:24:11.945Z,60.50
2018-05-08T20:26:41.353Z,60.40
2018-05-08T20:29:10.209Z,61.00
2018-05-08T20:31:39.063Z,62.30
2018-05-08T20:34:08.682Z,61.10
2018-05-08T20:36:38.323Z,61.60
2018-05-08T20:39:07.192Z,61.30
2018-05-08T20:41:36.799Z,62.00
2018-05-08T20:44:06.402Z,61.90
2018-05-08T20:46:36.052Z,61.60
2018-05-08T20:49:04.884Z,61.50
2018-05-08T20:51:33.722Z,62.00
2018-05-08T20:54:02.569Z,62.60
2018-05-08T20:56:31.394Z,63.50
2018-05-08T20:59:00.897Z,63.00
2018-05-08T21:01:29.902Z,62.90
2018-05-08T21:03:58.729Z,64.30
2018-05-08T21:06:27.716Z,64.50
2018-05-08T21:08:56.655Z,64.30
2018-05-08T21:11:25.773Z,64.70
2018-05-08T21:13:54.609Z,63.90
2018-05-08T21:16:23.453Z,63.50
2018-05-08T21:18:52.296Z,63.80
2018-05-08T21:21:21.170Z,64.20
2018-05-08T21:23:50.009Z,64.60
2018-05-08T21:26:18.842Z,65.10
2018-05-08T21:28:53.326Z,65.30
2018-05-08T21:31:22.174Z,65.80
2018-05-08T21:33:51.038Z,66.30
2018-05-08T21:36:20.839Z,67.20
2018-05-08T21:38:49.617Z,66.50
2018-05-08T21:41:19.232Z,67.00
2018-05-08T21:43:48.878Z,67.20
2018-05-08T21:46:17.753Z,67.10
2018-05-08T21:48:46.619Z,67.80
2018-05-08T21:51:16.248Z,68.10
2018-05-08T21:53:45.343Z,68.00
2018-05-08T21:56:14.164Z,67.50
2018-05-08T21:58:43.021Z,67.60
2018-05-08T22:01:11.868Z,67.80
2018-05-08T22:03:40.721Z,67.90
2018-05-08T22:06:09.551Z,68.30
2018-05-08T22:08:39.916Z,69.40
2018-05-08T22:11:08.745Z,68.60
2018-05-08T22:13:37.693Z,68.10
2018-05-08T22:16:06.533Z,68.10
2018-05-08T22:18:35.384Z,68.20
2018-05-08T22:21:04.240Z,68.80
2018-05-08T22:23:33.101Z,69.10
2018-05-08T22:26:01.943Z,69.20
2018-05-08T22:28:30.831Z,69.10
2018-05-08T22:30:59.899Z,68.70
2018-05-08T22:33:29.499Z,69.20
2018-05-08T22:35:58.340Z,69.20
2018-05-08T22:38:27.178Z,69.50
2018-05-08T22:40:56.014Z,69.30
2018-05-08T22:43:25.634Z,69.50
2018-05-08T22:45:54.465Z,69.50
2018-05-08T22:48:23.308Z,68.90
2018-05-08T22:50:52.945Z,69.00
2018-05-08T22:53:21.786Z,69.00
2018-05-08T22:55:50.609Z,69.10
2018-05-08T22:58:20.224Z,68.90
2018-05-08T23:00:49.851Z,68.90
2018-05-08T23:03:18.698Z,68.80
2018-05-08T23:05:47.542Z,68.70
2018-05-08T23:08:16.381Z,69.60
2018-05-08T23:10:45.997Z,69.00
2018-05-08T23:13:15.100Z,68.80
2018-05-08T23:15:44.705Z,69.40
2018-05-08T23:18:14.360Z,70.00
2018-05-08T23:20:43.913Z,70.00
2018-05-08T23:23:13.540Z,69.80
2018-05-08T23:25:42.360Z,69.60
2018-05-08T23:28:11.201Z,70.10
2018-05-08T23:30:40.793Z,69.40
2018-05-08T23:33:09.660Z,69.40
2018-05-08T23:35:38.503Z,69.60
2018-05-08T23:38:07.354Z,70.30
2018-05-08T23:40:36.198Z,70.10
2018-05-08T23:43:05.052Z,70.40
2018-05-08T23:45:34.652Z,70.50
2018-05-08T23:48:03.520Z,70.80
2018-05-08T23:50:32.398Z,71.10
2018-05-08T23:53:01.225Z,71.20
2018-05-08T23:55:30.834Z,71.50
2018-05-08T23:58:00.441Z,71.70
